sensor_id;sensor_type;location;lat;lon;timestamp;temperature;humidity
22114;DHT22;11223;49.968;9.062;2023-03-19T00:01:40;8.50;99.90
22114;DHT22;11223;49.968;9.062;2023-03-19T00:04:06;8.50;99.90
22114;DHT22;11223;49.968;9.062;2023-03-19T00:06:32;8.50;99.90
22114;DHT22;11223;49.968;9.062;2023-03-19T00:08:57;8.50;99.90
22114;DHT22;11223;49.968;9.062;2023-03-19T00:11:23;8.50;99.90
22114;DHT22;11223;49.968;9.062;2023-03-19T00:13:49;8.50;99.90
22114;DHT22;11223;49.968;9.062;2023-03-19T00:16:15;8.50;99.90
22114;DHT22;11223;49.968;9.062;2023-03-19T00:18:41;8.50;99.90
22114;DHT22;11223;49.968;9.062;2023-03-19T00:21:07;8.50;99.90
22114;DHT22;11223;49.968;9.062;2023-03-19T00:23:33;8.40;99.90
22114;DHT22;11223;49.968;9.062;2023-03-19T00:25:59;8.40;99.90
22114;DHT22;11223;49.968;9.062;2023-03-19T00:28:24;8.40;99.90
22114;DHT22;11223;49.968;9.062;2023-03-19T00:30:50;8.30;99.90
22114;DHT22;11223;49.968;9.062;2023-03-19T00:33:16;8.30;99.90
22114;DHT22;11223;49.968;9.062;2023-03-19T00:35:42;8.30;99.90
22114;DHT22;11223;49.968;9.062;2023-03-19T00:38:07;8.30;99.90
22114;DHT22;11223;49.968;9.062;2023-03-19T00:40:33;8.20;99.90
22114;DHT22;11223;49.968;9.062;2023-03-19T00:42:58;8.30;99.90
22114;DHT22;11223;49.968;9.062;2023-03-19T00:45:24;8.20;99.90
22114;DHT22;11223;49.968;9.062;2023-03-19T00:47:50;8.20;99.90
22114;DHT22;11223;49.968;9.062;2023-03-19T00:50:16;8.30;99.90
22114;DHT22;11223;49.968;9.062;2023-03-19T00:52:41;8.30;99.90
22114;DHT22;11223;49.968;9.062;2023-03-19T00:55:07;8.20;99.90
22114;DHT22;11223;49.968;9.062;2023-03-19T00:57:33;8.20;99.90
22114;DHT22;11223;49.968;9.062;2023-03-19T00:59:59;8.20;99.90
22114;DHT22;11223;49.968;9.062;2023-03-19T01:02:25;8.20;99.90
22114;DHT22;11223;49.968;9.062;2023-03-19T01:04:50;8.20;99.90
22114;DHT22;11223;49.968;9.062;2023-03-19T01:07:16;8.20;99.90
22114;DHT22;11223;49.968;9.062;2023-03-19T01:09:42;8.10;99.90
22114;DHT22;11223;49.968;9.062;2023-03-19T01:12:08;8.10;99.90
22114;DHT22;11223;49.968;9.062;2023-03-19T01:14:33;8.10;99.90
22114;DHT22;11223;49.968;9.062;2023-03-19T01:16:59;8.10;99.90
22114;DHT22;11223;49.968;9.062;2023-03-19T01:19:25;8.10;99.90
22114;DHT22;11223;49.968;9.062;2023-03-19T01:21:51;8.20;99.90
22114;DHT22;11223;49.968;9.062;2023-03-19T01:24:18;8.20;99.90
22114;DHT22;11223;49.968;9.062;2023-03-19T01:26:43;8.20;99.90
22114;DHT22;11223;49.968;9.062;2023-03-19T01:29:09;8.30;99.90
22114;DHT22;11223;49.968;9.062;2023-03-19T01:31:35;8.30;99.90
22114;DHT22;11223;49.968;9.062;2023-03-19T01:34:02;8.30;99.90
22114;DHT22;11223;49.968;9.062;2023-03-19T01:36:27;8.30;99.90
22114;DHT22;11223;49.968;9.062;2023-03-19T01:38:53;8.30;99.90
22114;DHT22;11223;49.968;9.062;2023-03-19T01:41:21;8.30;99.90
22114;DHT22;11223;49.968;9.062;2023-03-19T01:43:47;8.30;99.90
22114;DHT22;11223;49.968;9.062;2023-03-19T01:46:32;8.30;99.90
22114;DHT22;11223;49.968;9.062;2023-03-19T01:49:05;8.30;99.90
22114;DHT22;11223;49.968;9.062;2023-03-19T01:51:37;8.30;99.90
22114;DHT22;11223;49.968;9.062;2023-03-19T01:54:07;8.40;99.90
22114;DHT22;11223;49.968;9.062;2023-03-19T01:56:37;8.40;99.90
22114;DHT22;11223;49.968;9.062;2023-03-19T01:59:11;8.50;99.90
22114;DHT22;11223;49.968;9.062;2023-03-19T02:01:45;8.50;99.90
22114;DHT22;11223;49.968;9.062;2023-03-19T02:04:12;8.60;99.90
22114;DHT22;11223;49.968;9.062;2023-03-19T02:06:39;8.60;99.90
22114;DHT22;11223;49.968;9.062;2023-03-19T02:09:05;8.60;99.90
22114;DHT22;11223;49.968;9.062;2023-03-19T02:11:32;8.60;99.90
22114;DHT22;11223;49.968;9.062;2023-03-19T02:13:57;8.60;99.90
22114;DHT22;11223;49.968;9.062;2023-03-19T02:16:23;8.60;99.90
22114;DHT22;11223;49.968;9.062;2023-03-19T02:18:49;8.50;99.90
22114;DHT22;11223;49.968;9.062;2023-03-19T02:21:16;8.50;99.90
22114;DHT22;11223;49.968;9.062;2023-03-19T02:24:11;8.40;99.90
22114;DHT22;11223;49.968;9.062;2023-03-19T02:26:40;8.40;99.90
22114;DHT22;11223;49.968;9.062;2023-03-19T02:29:06;8.30;99.90
22114;DHT22;11223;49.968;9.062;2023-03-19T02:31:32;8.20;99.90
22114;DHT22;11223;49.968;9.062;2023-03-19T02:34:03;8.10;99.90
22114;DHT22;11223;49.968;9.062;2023-03-19T02:36:36;8.10;99.90
22114;DHT22;11223;49.968;9.062;2023-03-19T02:39:06;8.00;99.90
22114;DHT22;11223;49.968;9.062;2023-03-19T02:41:33;7.90;99.90
22114;DHT22;11223;49.968;9.062;2023-03-19T02:44:02;7.80;99.90
22114;DHT22;11223;49.968;9.062;2023-03-19T02:46:28;7.80;99.90
22114;DHT22;11223;49.968;9.062;2023-03-19T02:48:54;7.80;99.90
22114;DHT22;11223;49.968;9.062;2023-03-19T02:51:20;7.70;99.90
22114;DHT22;11223;49.968;9.062;2023-03-19T02:53:45;7.80;99.90
22114;DHT22;11223;49.968;9.062;2023-03-19T02:56:11;7.80;99.90
22114;DHT22;11223;49.968;9.062;2023-03-19T02:58:37;7.80;99.90
22114;DHT22;11223;49.968;9.062;2023-03-19T03:01:03;7.90;99.90
22114;DHT22;11223;49.968;9.062;2023-03-19T03:03:29;7.90;99.90
22114;DHT22;11223;49.968;9.062;2023-03-19T03:05:55;7.90;99.90
22114;DHT22;11223;49.968;9.062;2023-03-19T03:08:20;7.90;99.90
22114;DHT22;11223;49.968;9.062;2023-03-19T03:10:46;7.90;99.90
22114;DHT22;11223;49.968;9.062;2023-03-19T03:13:11;7.90;99.90
22114;DHT22;11223;49.968;9.062;2023-03-19T03:15:38;7.90;99.90
22114;DHT22;11223;49.968;9.062;2023-03-19T03:18:03;7.90;99.90
22114;DHT22;11223;49.968;9.062;2023-03-19T03:20:30;7.90;99.90
22114;DHT22;11223;49.968;9.062;2023-03-19T03:22:55;7.90;99.90
22114;DHT22;11223;49.968;9.062;2023-03-19T03:25:21;7.90;99.90
22114;DHT22;11223;49.968;9.062;2023-03-19T03:27:47;7.90;99.90
22114;DHT22;11223;49.968;9.062;2023-03-19T03:30:13;7.90;99.90
22114;DHT22;11223;49.968;9.062;2023-03-19T03:32:40;8.00;99.90
22114;DHT22;11223;49.968;9.062;2023-03-19T03:35:07;8.00;99.90
22114;DHT22;11223;49.968;9.062;2023-03-19T03:37:34;8.00;99.90
22114;DHT22;11223;49.968;9.062;2023-03-19T03:39:59;8.00;99.90
22114;DHT22;11223;49.968;9.062;2023-03-19T03:42:25;8.10;99.90
22114;DHT22;11223;49.968;9.062;2023-03-19T03:44:51;8.10;99.90
22114;DHT22;11223;49.968;9.062;2023-03-19T03:47:17;8.20;99.90
22114;DHT22;11223;49.968;9.062;2023-03-19T03:49:42;8.20;99.90
22114;DHT22;11223;49.968;9.062;2023-03-19T03:52:08;8.20;99.90
22114;DHT22;11223;49.968;9.062;2023-03-19T03:54:34;8.20;99.90
22114;DHT22;11223;49.968;9.062;2023-03-19T03:56:59;8.20;99.90
22114;DHT22;11223;49.968;9.062;2023-03-19T03:59:26;8.20;99.90
22114;DHT22;11223;49.968;9.062;2023-03-19T04:01:51;8.30;99.90
22114;DHT22;11223;49.968;9.062;2023-03-19T04:04:17;8.30;99.90
22114;DHT22;11223;49.968;9.062;2023-03-19T04:06:44;8.30;99.90
22114;DHT22;11223;49.968;9.062;2023-03-19T04:09:10;8.30;99.90
22114;DHT22;11223;49.968;9.062;2023-03-19T04:11:36;8.30;99.90
22114;DHT22;11223;49.968;9.062;2023-03-19T04:14:01;8.30;99.90
22114;DHT22;11223;49.968;9.062;2023-03-19T04:16:27;8.30;99.90
22114;DHT22;11223;49.968;9.062;2023-03-19T04:18:53;8.30;99.90
22114;DHT22;11223;49.968;9.062;2023-03-19T04:21:19;8.30;99.90
22114;DHT22;11223;49.968;9.062;2023-03-19T04:23:45;8.30;99.90
22114;DHT22;11223;49.968;9.062;2023-03-19T04:26:11;8.30;99.90
22114;DHT22;11223;49.968;9.062;2023-03-19T04:28:37;8.30;99.90
22114;DHT22;11223;49.968;9.062;2023-03-19T04:31:05;8.30;99.90
22114;DHT22;11223;49.968;9.062;2023-03-19T04:33:32;8.30;99.90
22114;DHT22;11223;49.968;9.062;2023-03-19T04:35:58;8.30;99.90
22114;DHT22;11223;49.968;9.062;2023-03-19T04:38:24;8.30;99.90
22114;DHT22;11223;49.968;9.062;2023-03-19T04:40:51;8.30;99.90
22114;DHT22;11223;49.968;9.062;2023-03-19T04:43:17;8.30;99.90
22114;DHT22;11223;49.968;9.062;2023-03-19T04:45:43;8.30;99.90
22114;DHT22;11223;49.968;9.062;2023-03-19T04:48:08;8.30;99.90
22114;DHT22;11223;49.968;9.062;2023-03-19T04:50:34;8.30;99.90
22114;DHT22;11223;49.968;9.062;2023-03-19T04:53:00;8.40;99.90
22114;DHT22;11223;49.968;9.062;2023-03-19T04:55:26;8.30;99.90
22114;DHT22;11223;49.968;9.062;2023-03-19T04:57:52;8.40;99.90
22114;DHT22;11223;49.968;9.062;2023-03-19T05:00:18;8.30;99.90
22114;DHT22;11223;49.968;9.062;2023-03-19T05:02:44;8.40;99.90
22114;DHT22;11223;49.968;9.062;2023-03-19T05:05:10;8.30;99.90
22114;DHT22;11223;49.968;9.062;2023-03-19T05:07:38;8.30;99.90
22114;DHT22;11223;49.968;9.062;2023-03-19T05:10:05;8.30;99.90
22114;DHT22;11223;49.968;9.062;2023-03-19T05:12:30;8.20;99.90
22114;DHT22;11223;49.968;9.062;2023-03-19T05:14:57;8.20;99.90
22114;DHT22;11223;49.968;9.062;2023-03-19T05:17:22;8.20;99.90
22114;DHT22;11223;49.968;9.062;2023-03-19T05:19:48;8.20;99.90
22114;DHT22;11223;49.968;9.062;2023-03-19T05:22:14;8.20;99.90
22114;DHT22;11223;49.968;9.062;2023-03-19T05:24:39;8.20;99.90
22114;DHT22;11223;49.968;9.062;2023-03-19T05:27:05;8.20;99.90
22114;DHT22;11223;49.968;9.062;2023-03-19T05:29:31;8.20;99.90
22114;DHT22;11223;49.968;9.062;2023-03-19T05:31:57;8.20;99.90
22114;DHT22;11223;49.968;9.062;2023-03-19T05:34:24;8.20;99.90
22114;DHT22;11223;49.968;9.062;2023-03-19T05:36:50;8.20;99.90
22114;DHT22;11223;49.968;9.062;2023-03-19T05:39:16;8.20;99.90
22114;DHT22;11223;49.968;9.062;2023-03-19T05:41:41;8.20;99.90
22114;DHT22;11223;49.968;9.062;2023-03-19T05:44:07;8.20;99.90
22114;DHT22;11223;49.968;9.062;2023-03-19T05:46:33;8.20;99.90
22114;DHT22;11223;49.968;9.062;2023-03-19T05:48:59;8.20;99.90
22114;DHT22;11223;49.968;9.062;2023-03-19T05:51:25;8.20;99.90
22114;DHT22;11223;49.968;9.062;2023-03-19T05:53:50;8.20;99.90
22114;DHT22;11223;49.968;9.062;2023-03-19T05:56:16;8.10;99.90
22114;DHT22;11223;49.968;9.062;2023-03-19T05:58:41;8.20;99.90
22114;DHT22;11223;49.968;9.062;2023-03-19T06:01:07;8.10;99.90
22114;DHT22;11223;49.968;9.062;2023-03-19T06:03:33;8.10;99.90
22114;DHT22;11223;49.968;9.062;2023-03-19T06:05:58;8.10;99.90
22114;DHT22;11223;49.968;9.062;2023-03-19T06:08:25;8.10;99.90
22114;DHT22;11223;49.968;9.062;2023-03-19T06:10:52;8.10;99.90
22114;DHT22;11223;49.968;9.062;2023-03-19T06:13:17;8.10;99.90
22114;DHT22;11223;49.968;9.062;2023-03-19T06:15:43;8.20;99.90
22114;DHT22;11223;49.968;9.062;2023-03-19T06:18:09;8.20;99.90
22114;DHT22;11223;49.968;9.062;2023-03-19T06:20:34;8.20;99.90
22114;DHT22;11223;49.968;9.062;2023-03-19T06:23:00;8.30;99.90
22114;DHT22;11223;49.968;9.062;2023-03-19T06:25:26;8.30;99.90
22114;DHT22;11223;49.968;9.062;2023-03-19T06:27:51;8.30;99.90
22114;DHT22;11223;49.968;9.062;2023-03-19T06:30:17;8.40;99.90
22114;DHT22;11223;49.968;9.062;2023-03-19T06:32:42;8.40;99.90
22114;DHT22;11223;49.968;9.062;2023-03-19T06:35:08;8.40;99.90
22114;DHT22;11223;49.968;9.062;2023-03-19T06:37:34;8.50;99.90
22114;DHT22;11223;49.968;9.062;2023-03-19T06:40:00;8.50;99.90
22114;DHT22;11223;49.968;9.062;2023-03-19T06:42:26;8.60;99.90
22114;DHT22;11223;49.968;9.062;2023-03-19T06:44:52;8.60;99.90
22114;DHT22;11223;49.968;9.062;2023-03-19T06:47:18;8.60;99.90
22114;DHT22;11223;49.968;9.062;2023-03-19T06:49:44;8.70;99.90
22114;DHT22;11223;49.968;9.062;2023-03-19T06:52:10;8.70;99.90
22114;DHT22;11223;49.968;9.062;2023-03-19T06:54:35;8.70;99.90
22114;DHT22;11223;49.968;9.062;2023-03-19T06:57:01;8.80;99.90
22114;DHT22;11223;49.968;9.062;2023-03-19T06:59:26;8.90;99.90
22114;DHT22;11223;49.968;9.062;2023-03-19T07:01:52;8.90;99.90
22114;DHT22;11223;49.968;9.062;2023-03-19T07:04:18;8.90;99.90
22114;DHT22;11223;49.968;9.062;2023-03-19T07:06:44;9.00;99.90
22114;DHT22;11223;49.968;9.062;2023-03-19T07:09:10;9.10;99.90
22114;DHT22;11223;49.968;9.062;2023-03-19T07:11:36;9.10;99.90
22114;DHT22;11223;49.968;9.062;2023-03-19T07:14:02;9.20;99.90
22114;DHT22;11223;49.968;9.062;2023-03-19T07:16:28;9.30;99.90
22114;DHT22;11223;49.968;9.062;2023-03-19T07:18:54;9.30;99.90
22114;DHT22;11223;49.968;9.062;2023-03-19T07:21:20;9.40;99.90
22114;DHT22;11223;49.968;9.062;2023-03-19T07:23:46;9.50;99.90
22114;DHT22;11223;49.968;9.062;2023-03-19T07:26:12;9.50;99.90
22114;DHT22;11223;49.968;9.062;2023-03-19T07:28:40;9.60;99.90
22114;DHT22;11223;49.968;9.062;2023-03-19T07:31:06;9.70;99.90
22114;DHT22;11223;49.968;9.062;2023-03-19T07:33:32;9.70;99.90
22114;DHT22;11223;49.968;9.062;2023-03-19T07:35:57;9.70;99.90
22114;DHT22;11223;49.968;9.062;2023-03-19T07:38:23;9.80;99.90
22114;DHT22;11223;49.968;9.062;2023-03-19T07:40:49;9.80;99.90
22114;DHT22;11223;49.968;9.062;2023-03-19T07:43:15;9.90;99.90
22114;DHT22;11223;49.968;9.062;2023-03-19T07:45:41;9.90;99.90
22114;DHT22;11223;49.968;9.062;2023-03-19T07:48:06;10.00;99.90
22114;DHT22;11223;49.968;9.062;2023-03-19T07:50:33;10.10;99.90
22114;DHT22;11223;49.968;9.062;2023-03-19T07:52:59;10.20;99.90
22114;DHT22;11223;49.968;9.062;2023-03-19T07:55:24;10.20;99.90
22114;DHT22;11223;49.968;9.062;2023-03-19T07:57:50;10.30;99.90
22114;DHT22;11223;49.968;9.062;2023-03-19T08:00:16;10.50;99.90
22114;DHT22;11223;49.968;9.062;2023-03-19T08:02:42;10.60;99.90
22114;DHT22;11223;49.968;9.062;2023-03-19T08:05:08;10.70;99.90
22114;DHT22;11223;49.968;9.062;2023-03-19T08:07:35;10.80;99.90
22114;DHT22;11223;49.968;9.062;2023-03-19T08:10:01;10.90;99.90
22114;DHT22;11223;49.968;9.062;2023-03-19T08:12:27;11.00;99.90
22114;DHT22;11223;49.968;9.062;2023-03-19T08:14:53;11.20;99.90
22114;DHT22;11223;49.968;9.062;2023-03-19T08:17:19;11.20;99.90
22114;DHT22;11223;49.968;9.062;2023-03-19T08:19:45;11.30;99.90
22114;DHT22;11223;49.968;9.062;2023-03-19T08:22:11;11.40;99.90
22114;DHT22;11223;49.968;9.062;2023-03-19T08:24:37;11.50;99.90
22114;DHT22;11223;49.968;9.062;2023-03-19T08:27:03;11.70;99.90
22114;DHT22;11223;49.968;9.062;2023-03-19T08:29:28;11.90;99.90
22114;DHT22;11223;49.968;9.062;2023-03-19T08:31:54;12.00;99.90
22114;DHT22;11223;49.968;9.062;2023-03-19T08:34:21;12.20;99.90
22114;DHT22;11223;49.968;9.062;2023-03-19T08:36:47;12.30;99.90
22114;DHT22;11223;49.968;9.062;2023-03-19T08:39:13;12.40;99.90
22114;DHT22;11223;49.968;9.062;2023-03-19T08:41:39;12.50;99.90
22114;DHT22;11223;49.968;9.062;2023-03-19T08:44:05;12.70;99.90
22114;DHT22;11223;49.968;9.062;2023-03-19T08:46:30;12.80;99.90
22114;DHT22;11223;49.968;9.062;2023-03-19T08:48:56;12.90;99.90
22114;DHT22;11223;49.968;9.062;2023-03-19T08:51:22;13.10;99.90
22114;DHT22;11223;49.968;9.062;2023-03-19T08:53:50;13.20;99.90
22114;DHT22;11223;49.968;9.062;2023-03-19T08:56:16;13.40;99.90
22114;DHT22;11223;49.968;9.062;2023-03-19T08:58:42;13.60;99.90
22114;DHT22;11223;49.968;9.062;2023-03-19T09:01:10;13.80;99.90
22114;DHT22;11223;49.968;9.062;2023-03-19T09:03:39;14.00;99.90
22114;DHT22;11223;49.968;9.062;2023-03-19T09:06:08;14.30;99.90
22114;DHT22;11223;49.968;9.062;2023-03-19T09:08:35;14.50;99.90
22114;DHT22;11223;49.968;9.062;2023-03-19T09:11:01;14.70;99.90
22114;DHT22;11223;49.968;9.062;2023-03-19T09:13:27;14.90;99.90
22114;DHT22;11223;49.968;9.062;2023-03-19T09:15:53;14.90;99.90
22114;DHT22;11223;49.968;9.062;2023-03-19T09:18:19;14.90;99.90
22114;DHT22;11223;49.968;9.062;2023-03-19T09:20:46;14.80;99.90
22114;DHT22;11223;49.968;9.062;2023-03-19T09:23:12;14.90;99.90
22114;DHT22;11223;49.968;9.062;2023-03-19T09:25:37;14.90;99.90
22114;DHT22;11223;49.968;9.062;2023-03-19T09:28:03;14.90;99.90
22114;DHT22;11223;49.968;9.062;2023-03-19T09:30:29;14.90;99.90
22114;DHT22;11223;49.968;9.062;2023-03-19T09:32:55;14.80;99.90
22114;DHT22;11223;49.968;9.062;2023-03-19T09:35:21;14.80;99.90
22114;DHT22;11223;49.968;9.062;2023-03-19T09:37:47;14.80;99.90
22114;DHT22;11223;49.968;9.062;2023-03-19T09:40:21;14.80;99.90
22114;DHT22;11223;49.968;9.062;2023-03-19T09:45:45;15.00;99.90
22114;DHT22;11223;49.968;9.062;2023-03-19T09:48:17;15.10;99.90
22114;DHT22;11223;49.968;9.062;2023-03-19T09:50:46;15.20;99.90
22114;DHT22;11223;49.968;9.062;2023-03-19T09:53:26;15.20;99.90
22114;DHT22;11223;49.968;9.062;2023-03-19T09:55:57;15.30;99.90
22114;DHT22;11223;49.968;9.062;2023-03-19T09:58:30;15.30;99.90
22114;DHT22;11223;49.968;9.062;2023-03-19T10:00:57;15.20;99.90
22114;DHT22;11223;49.968;9.062;2023-03-19T10:06:39;15.10;99.90
22114;DHT22;11223;49.968;9.062;2023-03-19T10:17:46;15.20;99.90
22114;DHT22;11223;49.968;9.062;2023-03-19T10:23:09;15.50;99.90
22114;DHT22;11223;49.968;9.062;2023-03-19T10:25:38;15.70;99.90
22114;DHT22;11223;49.968;9.062;2023-03-19T10:28:14;16.30;99.90
22114;DHT22;11223;49.968;9.062;2023-03-19T10:30:41;16.60;99.90
22114;DHT22;11223;49.968;9.062;2023-03-19T10:33:22;16.70;99.90
22114;DHT22;11223;49.968;9.062;2023-03-19T10:35:57;16.70;99.90
22114;DHT22;11223;49.968;9.062;2023-03-19T10:38:24;16.50;99.70
22114;DHT22;11223;49.968;9.062;2023-03-19T10:43:53;16.20;99.50
22114;DHT22;11223;49.968;9.062;2023-03-19T10:46:19;16.10;99.40
22114;DHT22;11223;49.968;9.062;2023-03-19T10:48:46;16.20;99.30
22114;DHT22;11223;49.968;9.062;2023-03-19T10:51:22;16.30;99.20
22114;DHT22;11223;49.968;9.062;2023-03-19T10:53:51;16.40;98.70
22114;DHT22;11223;49.968;9.062;2023-03-19T10:56:23;16.50;98.40
22114;DHT22;11223;49.968;9.062;2023-03-19T11:01:26;16.50;97.40
22114;DHT22;11223;49.968;9.062;2023-03-19T11:03:57;16.50;97.60
22114;DHT22;11223;49.968;9.062;2023-03-19T11:11:45;19.40;93.30
22114;DHT22;11223;49.968;9.062;2023-03-19T11:14:33;19.50;91.50
22114;DHT22;11223;49.968;9.062;2023-03-19T11:19:57;19.50;90.40
22114;DHT22;11223;49.968;9.062;2023-03-19T11:22:32;19.60;90.10
22114;DHT22;11223;49.968;9.062;2023-03-19T11:25:01;19.80;88.00
22114;DHT22;11223;49.968;9.062;2023-03-19T11:27:33;20.40;87.40
22114;DHT22;11223;49.968;9.062;2023-03-19T11:30:02;21.30;84.60
22114;DHT22;11223;49.968;9.062;2023-03-19T11:35:32;22.10;75.80
22114;DHT22;11223;49.968;9.062;2023-03-19T11:38:02;21.60;76.60
22114;DHT22;11223;49.968;9.062;2023-03-19T11:41:10;21.00;78.00
22114;DHT22;11223;49.968;9.062;2023-03-19T11:55:24;21.20;78.80
22114;DHT22;11223;49.968;9.062;2023-03-19T11:58:33;20.70;78.80
22114;DHT22;11223;49.968;9.062;2023-03-19T12:01:54;20.00;79.40
22114;DHT22;11223;49.968;9.062;2023-03-19T12:12:41;18.30;83.30
22114;DHT22;11223;49.968;9.062;2023-03-19T12:15:16;18.30;84.70
22114;DHT22;11223;49.968;9.062;2023-03-19T12:20:44;18.80;84.20
22114;DHT22;11223;49.968;9.062;2023-03-19T12:25:58;19.60;80.70
22114;DHT22;11223;49.968;9.062;2023-03-19T12:28:32;19.80;79.80
22114;DHT22;11223;49.968;9.062;2023-03-19T12:31:26;19.90;80.30
22114;DHT22;11223;49.968;9.062;2023-03-19T12:36:40;19.90;78.80
22114;DHT22;11223;49.968;9.062;2023-03-19T12:39:14;20.70;75.20
22114;DHT22;11223;49.968;9.062;2023-03-19T12:41:42;20.60;76.20
22114;DHT22;11223;49.968;9.062;2023-03-19T12:44:36;20.30;76.20
22114;DHT22;11223;49.968;9.062;2023-03-19T12:47:08;19.80;77.70
22114;DHT22;11223;49.968;9.062;2023-03-19T12:49:59;19.30;78.90
22114;DHT22;11223;49.968;9.062;2023-03-19T12:52:32;18.90;77.40
22114;DHT22;11223;49.968;9.062;2023-03-19T12:57:46;18.60;80.30
22114;DHT22;11223;49.968;9.062;2023-03-19T13:02:59;18.20;77.60
22114;DHT22;11223;49.968;9.062;2023-03-19T13:05:35;18.10;79.00
22114;DHT22;11223;49.968;9.062;2023-03-19T13:10:38;17.80;82.30
22114;DHT22;11223;49.968;9.062;2023-03-19T13:13:38;17.60;83.00
22114;DHT22;11223;49.968;9.062;2023-03-19T13:21:34;17.60;88.10
22114;DHT22;11223;49.968;9.062;2023-03-19T13:24:21;17.60;83.30
22114;DHT22;11223;49.968;9.062;2023-03-19T13:26:50;17.70;84.30
22114;DHT22;11223;49.968;9.062;2023-03-19T13:29:31;17.80;88.00
22114;DHT22;11223;49.968;9.062;2023-03-19T13:32:28;17.80;84.80
22114;DHT22;11223;49.968;9.062;2023-03-19T13:38:27;17.80;79.90
22114;DHT22;11223;49.968;9.062;2023-03-19T13:40:57;17.70;80.60
22114;DHT22;11223;49.968;9.062;2023-03-19T13:43:40;17.50;77.60
22114;DHT22;11223;49.968;9.062;2023-03-19T13:48:38;17.40;78.30
22114;DHT22;11223;49.968;9.062;2023-03-19T13:56:19;17.30;80.50
22114;DHT22;11223;49.968;9.062;2023-03-19T13:59:19;17.20;82.10
22114;DHT22;11223;49.968;9.062;2023-03-19T14:01:40;17.10;82.20
22114;DHT22;11223;49.968;9.062;2023-03-19T14:06:49;16.70;84.00
22114;DHT22;11223;49.968;9.062;2023-03-19T14:14:46;16.50;89.00
22114;DHT22;11223;49.968;9.062;2023-03-19T14:17:20;16.40;88.90
22114;DHT22;11223;49.968;9.062;2023-03-19T14:19:48;16.30;87.80
22114;DHT22;11223;49.968;9.062;2023-03-19T14:25:10;16.40;88.60
22114;DHT22;11223;49.968;9.062;2023-03-19T14:27:46;16.50;88.60
22114;DHT22;11223;49.968;9.062;2023-03-19T14:30:32;16.60;88.20
22114;DHT22;11223;49.968;9.062;2023-03-19T14:33:04;16.70;88.80
22114;DHT22;11223;49.968;9.062;2023-03-19T14:35:39;16.80;90.20
22114;DHT22;11223;49.968;9.062;2023-03-19T14:38:27;16.70;92.10
22114;DHT22;11223;49.968;9.062;2023-03-19T14:40:58;16.60;93.30
22114;DHT22;11223;49.968;9.062;2023-03-19T14:46:00;16.50;94.50
22114;DHT22;11223;49.968;9.062;2023-03-19T14:53:41;16.20;94.20
22114;DHT22;11223;49.968;9.062;2023-03-19T14:56:35;16.10;95.20
22114;DHT22;11223;49.968;9.062;2023-03-19T14:59:01;16.20;95.00
22114;DHT22;11223;49.968;9.062;2023-03-19T15:01:32;16.40;94.70
22114;DHT22;11223;49.968;9.062;2023-03-19T15:04:00;16.50;93.60
22114;DHT22;11223;49.968;9.062;2023-03-19T15:06:34;16.70;93.40
22114;DHT22;11223;49.968;9.062;2023-03-19T15:09:01;16.90;93.70
22114;DHT22;11223;49.968;9.062;2023-03-19T15:17:30;16.60;94.00
22114;DHT22;11223;49.968;9.062;2023-03-19T15:19:59;16.40;94.10
22114;DHT22;11223;49.968;9.062;2023-03-19T15:22:28;16.10;94.20
22114;DHT22;11223;49.968;9.062;2023-03-19T15:25:11;15.90;95.10
22114;DHT22;11223;49.968;9.062;2023-03-19T15:27:38;15.70;95.60
22114;DHT22;11223;49.968;9.062;2023-03-19T15:30:20;15.50;95.70
22114;DHT22;11223;49.968;9.062;2023-03-19T15:32:46;15.40;95.80
22114;DHT22;11223;49.968;9.062;2023-03-19T15:35:12;15.30;96.40
22114;DHT22;11223;49.968;9.062;2023-03-19T15:37:41;15.20;96.60
22114;DHT22;11223;49.968;9.062;2023-03-19T15:40:13;15.10;97.00
22114;DHT22;11223;49.968;9.062;2023-03-19T15:42:40;14.90;97.40
22114;DHT22;11223;49.968;9.062;2023-03-19T15:45:12;14.80;97.60
22114;DHT22;11223;49.968;9.062;2023-03-19T15:47:44;14.70;97.90
22114;DHT22;11223;49.968;9.062;2023-03-19T15:50:17;14.70;98.70
22114;DHT22;11223;49.968;9.062;2023-03-19T15:52:56;14.70;99.00
22114;DHT22;11223;49.968;9.062;2023-03-19T15:55:24;14.60;99.30
22114;DHT22;11223;49.968;9.062;2023-03-19T15:57:52;14.60;99.70
22114;DHT22;11223;49.968;9.062;2023-03-19T16:00:18;14.50;99.40
22114;DHT22;11223;49.968;9.062;2023-03-19T16:02:46;14.50;99.60
22114;DHT22;11223;49.968;9.062;2023-03-19T16:05:28;14.40;99.90
22114;DHT22;11223;49.968;9.062;2023-03-19T16:08:00;14.30;99.90
22114;DHT22;11223;49.968;9.062;2023-03-19T16:12:58;14.20;99.90
22114;DHT22;11223;49.968;9.062;2023-03-19T16:15:43;14.20;99.90
22114;DHT22;11223;49.968;9.062;2023-03-19T16:18:30;14.20;99.90
22114;DHT22;11223;49.968;9.062;2023-03-19T16:21:12;14.10;99.90
22114;DHT22;11223;49.968;9.062;2023-03-19T16:23:45;14.10;99.90
22114;DHT22;11223;49.968;9.062;2023-03-19T16:26:20;14.00;99.90
22114;DHT22;11223;49.968;9.062;2023-03-19T16:28:56;13.90;99.90
22114;DHT22;11223;49.968;9.062;2023-03-19T16:31:27;13.80;99.90
22114;DHT22;11223;49.968;9.062;2023-03-19T16:33:54;13.80;99.90
22114;DHT22;11223;49.968;9.062;2023-03-19T16:36:22;13.80;99.90
22114;DHT22;11223;49.968;9.062;2023-03-19T16:41:40;13.60;99.90
22114;DHT22;11223;49.968;9.062;2023-03-19T16:44:16;13.50;99.90
22114;DHT22;11223;49.968;9.062;2023-03-19T16:46:42;13.40;99.90
22114;DHT22;11223;49.968;9.062;2023-03-19T16:49:08;13.30;99.90
22114;DHT22;11223;49.968;9.062;2023-03-19T16:51:34;13.20;99.90
22114;DHT22;11223;49.968;9.062;2023-03-19T16:54:01;13.20;99.90
22114;DHT22;11223;49.968;9.062;2023-03-19T16:56:28;13.00;99.90
22114;DHT22;11223;49.968;9.062;2023-03-19T16:58:54;12.90;99.90
22114;DHT22;11223;49.968;9.062;2023-03-19T17:01:21;12.80;99.90
22114;DHT22;11223;49.968;9.062;2023-03-19T17:03:49;12.70;99.90
22114;DHT22;11223;49.968;9.062;2023-03-19T17:06:15;12.60;99.90
22114;DHT22;11223;49.968;9.062;2023-03-19T17:08:41;12.50;99.90
22114;DHT22;11223;49.968;9.062;2023-03-19T17:11:34;12.40;99.90
22114;DHT22;11223;49.968;9.062;2023-03-19T17:14:04;12.30;99.90
22114;DHT22;11223;49.968;9.062;2023-03-19T17:16:30;12.20;99.90
22114;DHT22;11223;49.968;9.062;2023-03-19T17:18:57;12.10;99.90
22114;DHT22;11223;49.968;9.062;2023-03-19T17:21:28;12.10;99.90
22114;DHT22;11223;49.968;9.062;2023-03-19T17:30:45;11.90;99.90
22114;DHT22;11223;49.968;9.062;2023-03-19T17:33:21;11.90;99.90
22114;DHT22;11223;49.968;9.062;2023-03-19T17:35:48;11.90;99.90
22114;DHT22;11223;49.968;9.062;2023-03-19T17:38:16;11.70;99.90
22114;DHT22;11223;49.968;9.062;2023-03-19T17:40:42;11.60;99.90
22114;DHT22;11223;49.968;9.062;2023-03-19T17:43:11;11.60;99.90
22114;DHT22;11223;49.968;9.062;2023-03-19T17:45:39;11.50;99.90
22114;DHT22;11223;49.968;9.062;2023-03-19T17:48:20;11.40;99.90
22114;DHT22;11223;49.968;9.062;2023-03-19T17:50:47;11.30;99.90
22114;DHT22;11223;49.968;9.062;2023-03-19T17:53:13;11.20;99.90